Time;durP1;ratioP1;P1;durP2;ratioP2;P2;SDS_P1;SDS_P2;PMS_P1;PMS_P2;Temp;Humidity;BMP_temperature;BMP_pressure;BME280_temperature;BME280_humidity;BME280_pressure;Samples;Min_cycle;Max_cycle;Signal;HPM_P1;HPM_P2
2022/08/29 00:01:48;;;;;;;;;0.33;0.33;;;;;27.15;33.25;67407.91;4977061;28;45529;-68
2022/08/29 00:04:13;;;;;;;;;0.00;0.00;;;;;27.08;33.51;67372.69;4994481;28;45419;-67
2022/08/29 00:06:39;;;;;;;;;1.00;1.00;;;;;27.14;33.55;67382.91;4994796;28;45446;-68
2022/08/29 00:09:05;;;;;;;;;1.00;1.00;;;;;27.13;33.91;67367.59;4994587;28;45529;-68
2022/08/29 00:11:30;;;;;;;;;2.00;0.00;;;;;27.09;33.79;67382.56;4977170;28;45521;-68
2022/08/29 00:13:56;;;;;;;;;2.00;0.00;;;;;27.06;33.53;67402.94;4993791;28;46143;-68
2022/08/29 00:16:21;;;;;;;;;1.33;1.00;;;;;27.07;33.87;67466.50;4994312;28;45457;-68
2022/08/29 00:18:47;;;;;;;;;2.33;1.00;;;;;27.07;33.65;67436.66;4977010;28;45452;-68
2022/08/29 00:21:12;;;;;;;;;2.00;0.67;;;;;26.95;33.78;67377.81;4994362;28;45536;-68
2022/08/29 00:23:38;;;;;;;;;3.00;1.00;;;;;27.01;34.24;67392.28;4994147;28;46270;-68
2022/08/29 00:26:03;;;;;;;;;3.00;1.33;;;;;26.99;34.02;67338.44;4994158;28;45471;-68
2022/08/29 00:28:29;;;;;;;;;1.00;1.00;;;;;26.99;33.50;67373.13;4993933;28;45801;-68
2022/08/29 00:30:54;;;;;;;;;1.00;1.00;;;;;26.94;33.84;67360.34;4995582;28;45938;-68
2022/08/29 00:33:20;;;;;;;;;0.00;0.00;;;;;26.92;34.06;67381.88;4994067;28;46147;-85
2022/08/29 00:35:46;;;;;;;;;1.00;1.00;;;;;26.94;33.67;67389.63;4992597;28;46424;-86
2022/08/29 00:38:15;;;;;;;;;0.00;0.00;;;;;26.93;33.44;67393.91;5026159;27;45606;-85
2022/08/29 00:40:50;;;;;;;;;2.33;2.00;;;;;26.94;34.20;67387.50;5097961;27;45444;-87
2022/08/29 00:43:18;;;;;;;;;1.33;1.33;;;;;26.88;33.63;67358.88;5089672;27;45377;-85
2022/08/29 00:46:10;;;;;;;;;0.00;0.00;;;;;26.93;33.57;67391.78;5097582;27;45511;-86
2022/08/29 00:48:37;;;;;;;;;1.00;1.00;;;;;26.92;33.84;67377.03;4953393;28;45547;-85
2022/08/29 00:51:08;;;;;;;;;1.00;1.00;;;;;26.94;34.09;67400.47;4895142;29;45436;-86
2022/08/29 00:53:41;;;;;;;;;0.00;0.00;;;;;26.96;34.17;67364.81;4879196;29;47042;-86
2022/08/29 00:56:11;;;;;;;;;3.00;1.33;;;;;26.98;34.22;67426.81;4879031;29;45570;-86
2022/08/29 00:58:41;;;;;;;;;0.00;0.00;;;;;26.97;33.93;67346.41;4905469;28;45712;-84
2022/08/29 01:01:07;;;;;;;;;1.00;1.00;;;;;27.00;33.56;67401.44;4978547;28;45801;-87
2022/08/29 01:03:35;;;;;;;;;0.67;0.67;;;;;27.02;33.57;67341.91;4994226;28;46138;-87
2022/08/29 01:06:01;;;;;;;;;0.33;0.33;;;;;26.80;33.78;67381.56;4994071;28;45443;-86
2022/08/29 01:08:27;;;;;;;;;0.33;0.33;;;;;26.97;33.94;67376.81;4911927;28;45912;-86
2022/08/29 01:13:41;;;;;;;;;0.33;0.00;;;;;26.97;33.82;67357.25;4894495;29;45568;-86
2022/08/29 01:16:09;;;;;;;;;0.00;0.00;;;;;26.88;33.89;67390.84;4882253;28;45524;-86
2022/08/29 01:18:38;;;;;;;;;0.67;0.67;;;;;26.92;33.86;67449.72;4894994;29;45495;-86
2022/08/29 01:21:12;;;;;;;;;2.00;1.00;;;;;26.86;33.83;67355.97;4879354;29;45875;-87
2022/08/29 01:24:22;;;;;;;;;0.00;0.00;;;;;26.84;33.99;67448.59;4894642;29;45988;-87
2022/08/29 01:26:48;;;;;;;;;0.67;0.67;;;;;26.83;33.66;67423.59;5017925;28;45602;-87
2022/08/29 01:29:14;;;;;;;;;1.00;1.00;;;;;26.79;33.94;67408.13;5033992;28;45616;-87
2022/08/29 01:31:43;;;;;;;;;0.00;0.00;;;;;26.78;34.07;67433.50;5034375;28;45454;-86
2022/08/29 01:34:10;;;;;;;;;0.33;0.33;;;;;26.75;34.18;67436.03;5033360;28;47481;-85
2022/08/29 01:36:50;;;;;;;;;0.00;0.00;;;;;26.70;34.52;67424.81;5000946;28;45490;-86
2022/08/29 01:39:17;;;;;;;;;1.00;1.00;;;;;26.70;34.09;67395.00;5017245;28;45576;-85
2022/08/29 01:41:43;;;;;;;;;0.00;0.00;;;;;26.67;34.30;67362.28;5033945;28;45741;-86
2022/08/29 01:44:18;;;;;;;;;0.67;0.67;;;;;26.65;34.34;67424.47;5033471;28;45546;-83
2022/08/29 01:46:46;;;;;;;;;1.00;1.00;;;;;26.62;34.03;67448.09;5033776;28;45843;-86
2022/08/29 01:49:14;;;;;;;;;0.67;0.67;;;;;26.60;34.32;67421.97;5033867;28;45450;-85
2022/08/29 01:51:40;;;;;;;;;0.67;0.67;;;;;26.48;34.46;67359.84;5033799;28;45538;-86
2022/08/29 01:54:07;;;;;;;;;1.00;1.00;;;;;26.56;34.39;67348.97;5033455;28;46938;-85
2022/08/29 01:56:36;;;;;;;;;1.00;1.00;;;;;26.53;34.78;67446.94;5016555;28;45439;-86
2022/08/29 01:59:06;;;;;;;;;0.00;0.00;;;;;26.51;34.57;67395.25;5033513;28;45531;-86
2022/08/29 02:01:38;;;;;;;;;1.00;1.00;;;;;26.50;34.35;67394.09;5033433;28;45528;-86
2022/08/29 02:04:05;;;;;;;;;1.67;1.33;;;;;26.48;34.69;67354.41;4984231;28;45511;-84
2022/08/29 02:06:31;;;;;;;;;1.00;1.00;;;;;26.47;34.94;67371.66;4960933;27;45517;-86
2022/08/29 02:08:57;;;;;;;;;1.00;1.00;;;;;26.49;34.47;67373.97;4993136;28;45811;-85
2022/08/29 02:11:23;;;;;;;;;1.00;1.00;;;;;26.43;34.93;67394.13;4993135;28;45401;-85
2022/08/29 02:13:54;;;;;;;;;1.00;1.00;;;;;26.47;34.40;67404.19;4992819;28;47146;-86
2022/08/29 02:16:21;;;;;;;;;1.00;1.00;;;;;26.44;34.83;67382.31;4993022;28;45692;-90
2022/08/29 02:18:47;;;;;;;;;0.00;0.00;;;;;26.40;34.73;67374.41;4993559;28;45415;-89
2022/08/29 02:21:17;;;;;;;;;4.00;2.00;;;;;26.47;34.29;67344.53;4979550;28;45447;-85
2022/08/29 02:23:43;;;;;;;;;0.67;0.67;;;;;26.47;35.00;67352.69;4999518;27;47509;-87
2022/08/29 02:26:09;;;;;;;;;2.33;1.00;;;;;26.44;35.00;67336.22;4961809;28;45736;-88
2022/08/29 02:28:36;;;;;;;;;1.00;1.00;;;;;26.42;34.35;67382.72;4962472;28;45503;-88
2022/08/29 02:31:03;;;;;;;;;0.00;0.00;;;;;26.44;34.36;67319.41;4996449;28;45436;-87
2022/08/29 02:33:30;;;;;;;;;0.33;0.33;;;;;26.43;34.67;67394.13;4995660;28;46378;-88
2022/08/29 02:35:57;;;;;;;;;0.33;0.33;;;;;26.37;35.07;67428.44;4995979;28;45415;-87
2022/08/29 02:38:24;;;;;;;;;1.00;1.00;;;;;26.41;34.85;67414.09;4978553;28;45673;-87
2022/08/29 02:40:50;;;;;;;;;0.00;0.00;;;;;26.32;34.87;67354.88;4997924;27;45433;-88
2022/08/29 02:43:18;;;;;;;;;1.00;1.00;;;;;26.39;34.83;67375.97;5100126;27;47176;-88
2022/08/29 02:45:43;;;;;;;;;0.00;0.00;;;;;26.37;35.03;67376.94;5099947;27;45386;-88
2022/08/29 02:48:13;;;;;;;;;0.33;0.33;;;;;26.31;34.43;67381.38;5076620;27;45684;-87
2022/08/29 02:50:40;;;;;;;;;3.00;0.00;;;;;26.29;34.60;67335.72;4978769;28;45435;-88
2022/08/29 02:53:06;;;;;;;;;1.00;1.00;;;;;26.27;34.53;67384.91;4995710;28;46415;-89
2022/08/29 02:55:32;;;;;;;;;0.67;0.00;;;;;26.15;34.94;67359.59;4978077;28;45361;-87
2022/08/29 02:57:57;;;;;;;;;0.67;0.67;;;;;26.23;34.67;67345.03;4999447;27;45557;-88
2022/08/29 03:00:25;;;;;;;;;0.00;0.00;;;;;26.23;34.96;67341.75;4996016;28;45544;-88
2022/08/29 03:02:52;;;;;;;;;0.33;0.33;;;;;26.22;34.62;67357.44;4995494;28;46299;-88
2022/08/29 03:05:20;;;;;;;;;1.33;0.67;;;;;26.23;34.94;67379.69;4995632;28;45439;-87
2022/08/29 03:07:46;;;;;;;;;0.33;0.33;;;;;26.21;35.15;67388.22;4977828;28;45410;-88
2022/08/29 03:10:12;;;;;;;;;1.00;1.00;;;;;26.19;34.96;67326.28;4995409;28;45537;-88
2022/08/29 03:12:39;;;;;;;;;2.00;0.00;;;;;26.22;35.33;67299.94;4995253;28;46203;-86
2022/08/29 03:15:05;;;;;;;;;2.00;1.00;;;;;26.19;34.95;67356.09;4998544;27;45810;-88
2022/08/29 03:17:31;;;;;;;;;0.00;0.00;;;;;26.18;34.78;67382.63;4977837;28;45577;-86
2022/08/29 03:19:57;;;;;;;;;1.00;1.00;;;;;26.16;35.36;67326.13;4995811;28;45547;-89
2022/08/29 03:22:23;;;;;;;;;1.00;1.00;;;;;26.16;35.31;67333.66;4995375;28;45644;-89
2022/08/29 03:24:49;;;;;;;;;1.00;1.00;;;;;26.16;35.28;67322.84;4977163;28;45471;-88
2022/08/29 03:27:15;;;;;;;;;0.67;0.67;;;;;26.15;35.54;67322.22;4977830;28;45422;-88
2022/08/29 03:29:40;;;;;;;;;0.67;0.00;;;;;26.13;35.16;67368.13;4995095;28;45420;-85
2022/08/29 03:32:06;;;;;;;;;2.00;0.00;;;;;26.07;35.31;67313.56;4981057;28;46708;-88
2022/08/29 03:34:32;;;;;;;;;0.00;0.00;;;;;26.06;34.96;67347.63;4995088;28;45382;-89
2022/08/29 03:36:58;;;;;;;;;1.00;1.00;;;;;26.00;35.12;67291.34;4995268;28;45572;-89
2022/08/29 03:39:24;;;;;;;;;1.00;1.00;;;;;26.02;35.22;67332.16;4995397;28;45342;-88
2022/08/29 03:41:49;;;;;;;;;1.00;1.00;;;;;25.98;35.79;67362.19;4994946;28;46308;-89
2022/08/29 03:44:15;;;;;;;;;1.00;1.00;;;;;25.90;35.29;67272.81;5049076;27;45406;-89
2022/08/29 03:46:40;;;;;;;;;0.00;0.00;;;;;25.95;35.45;67304.53;5098802;27;45434;-89
2022/08/29 03:49:07;;;;;;;;;1.00;1.00;;;;;25.89;35.33;67255.44;5044488;27;45354;-89
2022/08/29 03:51:34;;;;;;;;;1.00;1.00;;;;;25.89;35.77;67252.72;4989960;28;47941;-90
2022/08/29 03:54:00;;;;;;;;;2.67;1.33;;;;;25.85;35.58;67258.34;4970989;28;45459;-88
2022/08/29 03:56:26;;;;;;;;;2.00;2.00;;;;;25.87;35.72;67282.91;4979032;28;45338;-89
2022/08/29 03:58:52;;;;;;;;;0.33;0.33;;;;;25.86;35.84;67251.34;4996670;28;45382;-90
2022/08/29 04:01:18;;;;;;;;;1.33;1.00;;;;;25.83;35.55;67269.56;4993758;28;48449;-89
2022/08/29 04:03:44;;;;;;;;;2.00;1.00;;;;;25.82;35.91;67230.47;4995185;28;45357;-90
2022/08/29 04:06:10;;;;;;;;;1.00;1.00;;;;;25.69;36.06;67251.81;5030568;27;45413;-90
2022/08/29 04:08:36;;;;;;;;;0.00;0.00;;;;;25.74;36.06;67213.13;5046496;27;45624;-90
2022/08/29 04:11:09;;;;;;;;;0.00;0.00;;;;;25.77;36.32;67240.94;4993434;28;48558;-89
2022/08/29 04:13:35;;;;;;;;;0.00;0.00;;;;;25.76;36.34;67216.00;4994654;28;45437;-89
2022/08/29 04:16:00;;;;;;;;;0.00;0.00;;;;;25.75;36.10;67185.06;4993892;28;45843;-86
2022/08/29 04:18:25;;;;;;;;;1.00;1.00;;;;;25.72;36.07;67211.38;4994460;28;45572;-84
2022/08/29 04:21:01;;;;;;;;;0.67;0.67;;;;;25.72;36.06;67194.56;4993519;28;47406;-89
2022/08/29 04:23:26;;;;;;;;;1.00;1.00;;;;;25.72;36.11;67159.94;5039084;27;45561;-90
2022/08/29 04:25:52;;;;;;;;;1.00;1.00;;;;;25.71;36.32;67139.84;5065111;27;45687;-90
2022/08/29 04:28:17;;;;;;;;;0.00;0.00;;;;;25.68;36.43;67190.53;4995116;28;45408;-90
2022/08/29 04:30:47;;;;;;;;;1.00;1.00;;;;;25.68;36.46;67152.63;4994514;28;46294;-90
2022/08/29 04:33:13;;;;;;;;;2.00;0.00;;;;;25.67;35.83;67229.97;4995638;28;45496;-93
2022/08/29 04:35:39;;;;;;;;;1.00;1.00;;;;;25.64;36.39;67202.16;4994910;28;45332;-91
2022/08/29 04:38:05;;;;;;;;;1.00;1.00;;;;;25.54;36.43;67177.63;4995581;28;45446;-92
2022/08/29 04:40:31;;;;;;;;;1.33;0.00;;;;;25.57;35.94;67205.47;5002686;28;45639;-93
2022/08/29 04:42:58;;;;;;;;;1.67;1.67;;;;;25.55;36.13;67165.28;5008653;28;45522;-93
2022/08/29 04:45:24;;;;;;;;;1.67;1.00;;;;;25.53;36.42;67189.44;5014613;27;45542;-93
2022/08/29 04:47:50;;;;;;;;;1.00;1.00;;;;;25.47;36.18;67172.84;5000539;28;45527;-94
2022/08/29 04:50:20;;;;;;;;;1.00;1.00;;;;;25.51;36.51;67170.91;4994507;28;45604;-92
2022/08/29 04:52:46;;;;;;;;;2.00;2.00;;;;;25.47;36.34;67099.78;5002282;28;45535;-93
2022/08/29 04:55:12;;;;;;;;;1.00;1.00;;;;;25.48;36.10;67141.53;4997755;28;45751;-92
2022/08/29 04:57:38;;;;;;;;;2.00;2.00;;;;;25.46;36.57;67147.34;5013173;28;45604;-92
2022/08/29 05:00:11;;;;;;;;;4.00;2.00;;;;;25.38;36.15;67175.41;5011552;28;46075;-93
2022/08/29 05:02:42;;;;;;;;;1.67;1.67;;;;;25.34;36.28;67157.84;4995322;28;45494;-91
2022/08/29 05:05:09;;;;;;;;;1.00;1.00;;;;;25.37;36.43;67120.13;4978994;28;45592;-91
2022/08/29 05:07:35;;;;;;;;;1.00;1.00;;;;;25.35;36.67;67107.56;4982631;28;45470;-86
2022/08/29 05:10:06;;;;;;;;;1.33;1.00;;;;;25.40;36.87;67129.00;4976486;28;46032;-92
2022/08/29 05:12:34;;;;;;;;;1.33;1.33;;;;;25.32;36.67;67081.91;4991993;28;45679;-94
2022/08/29 05:15:00;;;;;;;;;1.00;1.00;;;;;25.38;36.90;67072.56;4979771;28;45569;-94
2022/08/29 05:17:27;;;;;;;;;1.00;1.00;;;;;25.33;36.41;67118.22;4976118;28;45758;-94
2022/08/29 05:19:53;;;;;;;;;2.00;1.00;;;;;25.33;36.98;67067.38;4989978;28;45382;-93
2022/08/29 05:22:19;;;;;;;;;2.00;2.00;;;;;25.36;36.51;67073.00;4997349;28;45419;-92
2022/08/29 05:24:46;;;;;;;;;1.00;1.00;;;;;25.30;36.44;67060.66;4993003;28;45577;-94
2022/08/29 05:27:18;;;;;;;;;3.00;1.67;;;;;25.33;37.03;67080.91;4980230;28;45910;-93
2022/08/29 05:29:47;;;;;;;;;1.00;1.00;;;;;25.39;36.47;67052.66;4976337;28;47354;-95
2022/08/29 05:32:13;;;;;;;;;1.00;1.00;;;;;25.34;36.45;67046.31;5011705;27;45517;-68
2022/08/29 05:34:41;;;;;;;;;4.00;1.00;;;;;25.37;36.84;67049.78;4997500;27;46873;-68
2022/08/29 05:37:14;;;;;;;;;1.67;1.67;;;;;25.37;36.47;67087.66;4993401;27;45575;-67
2022/08/29 05:39:41;;;;;;;;;1.67;1.33;;;;;25.36;36.94;67002.63;4998125;28;46047;-68
2022/08/29 05:42:08;;;;;;;;;2.00;1.00;;;;;25.39;36.79;66998.53;4996718;28;45477;-68
2022/08/29 05:44:35;;;;;;;;;1.00;1.00;;;;;25.39;36.70;66987.72;5006764;27;45629;-68
2022/08/29 05:47:02;;;;;;;;;1.00;1.00;;;;;25.40;36.84;66966.63;4989993;27;45628;-68
2022/08/29 05:49:28;;;;;;;;;1.67;1.67;;;;;25.41;36.99;66978.63;4986101;27;46372;-68
2022/08/29 05:51:55;;;;;;;;;1.00;1.00;;;;;25.43;36.91;66951.16;4990349;28;45411;-67
2022/08/29 05:54:22;;;;;;;;;1.00;1.00;;;;;25.44;36.74;66998.88;4994884;28;45565;-68
2022/08/29 05:56:47;;;;;;;;;1.33;1.33;;;;;25.46;36.53;66911.31;5037800;27;45518;-68
2022/08/29 05:59:14;;;;;;;;;3.67;0.67;;;;;25.48;36.79;66897.94;5092737;27;45940;-68
2022/08/29 06:01:40;;;;;;;;;1.00;1.00;;;;;25.53;36.49;66899.84;5069068;27;45649;-68
2022/08/29 06:04:06;;;;;;;;;1.00;1.00;;;;;25.46;36.87;66874.00;4981954;28;45641;-69
2022/08/29 06:06:31;;;;;;;;;2.00;0.67;;;;;25.59;36.74;66836.94;4984236;27;45457;-69
2022/08/29 06:08:58;;;;;;;;;3.33;1.67;;;;;25.51;37.02;66794.69;5055438;27;45748;-70
2022/08/29 06:11:27;;;;;;;;;3.67;1.67;;;;;25.64;36.67;66890.84;4997386;28;45433;-72
2022/08/29 06:13:53;;;;;;;;;2.33;2.00;;;;;25.62;37.16;66815.44;4995756;28;45635;-74
2022/08/29 06:16:21;;;;;;;;;4.00;2.00;;;;;25.67;36.90;66848.25;4980745;28;45524;-70
2022/08/29 06:18:47;;;;;;;;;3.67;2.00;;;;;25.64;36.35;66852.94;5060826;27;45663;-70
2022/08/29 06:21:13;;;;;;;;;1.33;1.33;;;;;25.73;36.41;66838.31;5033384;28;45457;-70
2022/08/29 06:23:40;;;;;;;;;0.67;0.67;;;;;25.75;36.64;66884.53;5030855;27;45433;-70
2022/08/29 06:26:07;;;;;;;;;2.00;0.00;;;;;25.77;36.66;66900.34;5007091;27;45531;-71
2022/08/29 06:28:35;;;;;;;;;1.67;1.00;;;;;25.80;36.26;66849.06;5020159;27;47107;-70
2022/08/29 06:31:09;;;;;;;;;1.00;1.00;;;;;25.83;36.22;66839.56;5010522;28;45463;-70
2022/08/29 06:33:35;;;;;;;;;1.00;1.00;;;;;25.77;36.47;66886.81;5010014;27;45534;-70
2022/08/29 06:36:00;;;;;;;;;2.00;0.33;;;;;25.81;36.07;66858.94;5020682;27;45576;-70
2022/08/29 06:38:26;;;;;;;;;1.00;1.00;;;;;25.77;36.39;66857.03;5008792;27;46049;-75
2022/08/29 06:40:51;;;;;;;;;0.33;0.33;;;;;25.78;36.43;66871.16;5002239;28;51687;-76
2022/08/29 06:43:16;;;;;;;;;1.00;1.00;;;;;25.80;36.78;66854.50;5007313;28;45433;-74
2022/08/29 06:45:42;;;;;;;;;1.67;1.00;;;;;25.72;36.37;66845.31;5077546;27;45380;-75
2022/08/29 06:48:09;;;;;;;;;1.00;1.00;;;;;25.79;36.68;66850.66;5013744;27;46406;-75
2022/08/29 06:50:36;;;;;;;;;1.00;1.00;;;;;25.68;36.64;66817.50;4991170;28;46021;-76
2022/08/29 06:53:02;;;;;;;;;2.00;1.00;;;;;25.79;36.51;66864.19;4994463;28;45466;-76
2022/08/29 06:55:27;;;;;;;;;0.00;0.00;;;;;25.80;36.49;66844.25;4987256;27;45505;-75
2022/08/29 06:57:53;;;;;;;;;0.33;0.33;;;;;25.83;36.66;66804.38;4992560;28;47447;-75
2022/08/29 07:00:20;;;;;;;;;1.00;1.00;;;;;25.89;36.80;66735.47;4996957;28;45481;-75
2022/08/29 07:02:46;;;;;;;;;3.00;0.00;;;;;25.96;36.76;66709.84;5015093;28;45463;-75
2022/08/29 07:05:14;;;;;;;;;1.33;1.33;;;;;25.96;36.26;66617.75;5015204;28;45401;-75
2022/08/29 07:07:40;;;;;;;;;0.00;0.00;;;;;26.06;36.41;66705.06;4997048;28;47327;-75
2022/08/29 07:10:07;;;;;;;;;1.00;1.00;;;;;26.00;36.15;66714.41;5014281;28;45424;-75
2022/08/29 07:12:32;;;;;;;;;1.00;1.00;;;;;26.09;36.43;66722.59;4984548;27;45569;-75
2022/08/29 07:14:57;;;;;;;;;0.33;0.33;;;;;26.15;36.60;66617.25;5063933;27;45693;-75
2022/08/29 07:17:23;;;;;;;;;1.00;1.00;;;;;26.22;36.41;66622.56;5080448;27;47826;-75
2022/08/29 07:19:48;;;;;;;;;2.00;1.00;;;;;26.20;36.16;66669.63;5032036;28;45438;-75
2022/08/29 07:22:14;;;;;;;;;1.33;1.00;;;;;26.20;36.13;66793.66;4995390;28;45488;-75
2022/08/29 07:24:39;;;;;;;;;2.00;1.00;;;;;26.24;36.39;66695.31;4982004;28;45458;-75
2022/08/29 07:27:04;;;;;;;;;1.00;1.00;;;;;26.29;35.94;66612.19;4994096;28;50864;-75
2022/08/29 07:29:30;;;;;;;;;1.00;1.00;;;;;26.36;36.00;66524.78;5010694;28;45599;-76
2022/08/29 07:31:55;;;;;;;;;2.67;1.00;;;;;26.35;36.38;66642.31;5009449;28;45418;-75
2022/08/29 07:34:21;;;;;;;;;1.00;1.00;;;;;26.45;36.44;66545.34;5015258;28;45469;-75
2022/08/29 07:36:46;;;;;;;;;1.00;1.00;;;;;26.52;36.76;66461.19;5006616;28;46143;-75
2022/08/29 07:39:15;;;;;;;;;1.00;1.00;;;;;26.55;36.23;66434.81;5007274;28;45454;-74
2022/08/29 07:41:43;;;;;;;;;5.33;1.33;;;;;26.67;36.12;66529.84;5004756;28;45383;-75
2022/08/29 07:44:09;;;;;;;;;1.00;1.00;;;;;26.68;35.92;66506.03;5011559;28;45604;-75
2022/08/29 07:46:35;;;;;;;;;2.00;0.00;;;;;26.78;35.66;66446.38;4999801;28;45544;-75
2022/08/29 07:49:00;;;;;;;;;4.00;1.00;;;;;26.88;35.80;66404.13;5006607;28;45462;-75
2022/08/29 07:51:27;;;;;;;;;1.00;1.00;;;;;26.93;35.70;66388.13;5010217;28;45452;-75
2022/08/29 07:53:53;;;;;;;;;1.00;1.00;;;;;27.00;36.11;66506.75;5008766;28;45569;-75
2022/08/29 07:56:22;;;;;;;;;2.00;2.00;;;;;27.05;35.47;66473.91;5007106;28;45754;-75
2022/08/29 07:58:48;;;;;;;;;1.00;1.00;;;;;27.07;35.84;66427.94;5010988;28;45446;-75
2022/08/29 08:01:13;;;;;;;;;3.33;2.00;;;;;27.19;35.16;66489.91;4996756;28;47140;-75
2022/08/29 08:03:41;;;;;;;;;2.67;2.00;;;;;27.30;35.32;66425.91;4994008;28;45512;-75
2022/08/29 08:06:08;;;;;;;;;1.00;1.00;;;;;27.34;35.19;66452.19;4993357;28;45575;-75
2022/08/29 08:08:34;;;;;;;;;5.00;2.00;;;;;27.45;35.08;66409.88;5008581;28;45664;-75
2022/08/29 08:11:01;;;;;;;;;1.00;1.00;;;;;27.43;34.90;66402.75;4994619;28;45447;-75
2022/08/29 08:13:27;;;;;;;;;1.33;1.00;;;;;27.60;35.07;66375.38;5002764;28;45434;-75
2022/08/29 08:15:54;;;;;;;;;3.00;2.00;;;;;27.69;34.93;66352.50;5010079;28;45440;-75
2022/08/29 08:18:19;;;;;;;;;0.00;0.00;;;;;27.79;34.41;66426.34;5007117;28;45457;-75
2022/08/29 08:20:47;;;;;;;;;1.33;1.33;;;;;27.84;34.53;66421.22;4975653;28;45480;-75
2022/08/29 08:23:14;;;;;;;;;1.00;1.00;;;;;27.91;34.31;66431.91;4987048;28;45569;-75
2022/08/29 08:25:39;;;;;;;;;2.67;1.33;;;;;28.03;34.53;66273.88;4993323;28;45373;-75
2022/08/29 08:28:05;;;;;;;;;2.00;2.00;;;;;28.13;34.66;66157.53;5009745;28;45421;-75
2022/08/29 08:30:30;;;;;;;;;1.33;1.33;;;;;28.29;34.50;66074.56;5014368;28;45546;-75
2022/08/29 08:32:56;;;;;;;;;1.00;1.00;;;;;29.01;33.29;65885.19;5012824;28;45496;-88
2022/08/29 08:35:21;;;;;;;;;3.00;1.00;;;;;29.39;32.97;65961.84;4989918;28;46804;-88
2022/08/29 08:37:48;;;;;;;;;2.00;2.00;;;;;29.92;31.95;65908.41;4978738;28;45615;-88
2022/08/29 08:40:21;;;;;;;;;3.00;1.00;;;;;31.63;30.72;64996.94;5008198;28;45542;-89
2022/08/29 08:42:49;;;;;;;;;2.00;2.00;;;;;33.33;28.70;64182.38;5002007;28;45692;-88
2022/08/29 08:45:21;;;;;;;;;1.00;1.00;;;;;34.68;26.83;64061.34;5003526;28;46847;-86
2022/08/29 08:47:57;;;;;;;;;1.75;1.75;;;;;34.68;26.30;64178.78;5007585;27;45531;-83
2022/08/29 08:50:26;;;;;;;;;1.00;1.00;;;;;34.63;27.35;64138.16;4982743;28;45668;-83
2022/08/29 08:52:57;;;;;;;;;2.00;2.00;;;;;34.98;26.54;64137.03;4969680;27;45497;-74
2022/08/29 08:55:41;;;;;;;;;1.00;1.00;;;;;35.32;26.31;63796.94;4988355;28;46075;-78
2022/08/29 08:58:25;;;;;;;;;1.67;1.67;;;;;35.58;25.73;63796.72;4994117;28;46874;-80
2022/08/29 09:00:59;;;;;;;;;1.00;1.00;;;;;35.90;24.56;63770.63;4972396;28;45599;-82
2022/08/29 09:03:54;;;;;;;;;1.00;1.00;;;;;36.08;24.57;63705.00;4989396;28;45538;-80
2022/08/29 09:06:42;;;;;;;;;1.75;1.75;;;;;36.63;23.99;63157.31;4976720;28;48479;-82
2022/08/29 09:09:31;;;;;;;;;0.00;0.00;;;;;38.51;22.73;61542.75;4991021;27;47181;-79
2022/08/29 09:12:03;;;;;;;;;2.67;1.67;;;;;39.80;21.45;60269.06;5014790;27;45588;-81
2022/08/29 09:14:43;;;;;;;;;1.00;1.00;;;;;40.84;21.15;59172.66;4989864;27;45462;-78
2022/08/29 09:17:19;;;;;;;;;5.00;2.00;;;;;41.39;20.69;58844.09;5006351;27;47721;-80
2022/08/29 09:19:46;;;;;;;;;1.67;1.00;;;;;41.31;20.74;59066.88;5011866;27;45474;-80
2022/08/29 09:22:21;;;;;;;;;0.75;0.75;;;;;40.95;20.47;59957.66;4991700;27;45631;-79
2022/08/29 09:25:10;;;;;;;;;1.00;1.00;;;;;40.73;21.14;60168.59;4991981;28;45760;-79
2022/08/29 09:27:37;;;;;;;;;2.00;1.00;;;;;41.50;20.01;59282.16;4986813;28;45482;-78
2022/08/29 09:30:08;;;;;;;;;3.00;1.67;;;;;41.87;19.78;59082.56;4991201;27;45500;-78
2022/08/29 09:32:59;;;;;;;;;2.00;2.00;;;;;41.59;20.01;59545.66;4994827;27;45564;-74
2022/08/29 09:35:44;;;;;;;;;1.00;1.00;;;;;41.25;20.18;60129.09;5000793;27;45510;-75
2022/08/29 09:38:15;;;;;;;;;0.67;0.67;;;;;41.77;19.77;59438.72;4996309;27;45570;-75
2022/08/29 09:40:57;;;;;;;;;1.67;0.33;;;;;42.24;20.00;58606.44;4988169;27;45659;-75
2022/08/29 09:43:46;;;;;;;;;2.00;1.67;;;;;42.50;19.91;58689.69;5007501;27;45562;-74
2022/08/29 09:46:23;;;;;;;;;1.00;1.00;;;;;42.73;19.12;58363.16;5010348;27;45603;-74
2022/08/29 09:49:03;;;;;;;;;1.00;1.00;;;;;43.11;19.65;57653.34;5061363;27;46378;-74
2022/08/29 09:51:34;;;;;;;;;3.33;2.00;;;;;43.23;18.52;58091.72;5062823;27;45444;-74
2022/08/29 09:54:21;;;;;;;;;2.00;2.00;;;;;43.38;19.16;57809.94;5016452;27;45548;-78
2022/08/29 09:56:52;;;;;;;;;0.67;0.67;;;;;43.51;18.57;58050.03;4995471;27;45484;-72
2022/08/29 09:59:24;;;;;;;;;1.00;1.00;;;;;43.59;18.74;57685.22;5032329;27;46574;-73
2022/08/29 10:02:06;;;;;;;;;1.00;1.00;;;;;43.73;18.40;57651.78;5044818;27;45552;-75
2022/08/29 10:04:38;;;;;;;;;3.67;2.67;;;;;43.52;17.91;58297.72;4993381;27;45556;-76
2022/08/29 10:07:18;;;;;;;;;1.00;1.00;;;;;43.52;18.79;58189.88;4974380;27;45762;-75
2022/08/29 10:10:12;;;;;;;;;3.33;2.00;;;;;43.35;18.70;58534.03;4988967;28;46204;-76
2022/08/29 10:12:52;;;;;;;;;1.00;1.00;;;;;43.18;18.86;58859.06;5007000;28;45913;-77
2022/08/29 10:15:25;;;;;;;;;0.33;0.33;;;;;42.99;19.35;59076.97;4990346;28;45502;-75
2022/08/29 10:18:23;;;;;;;;;2.00;1.00;;;;;42.90;19.12;59456.50;5009597;27;45516;-77
2022/08/29 10:20:51;;;;;;;;;3.67;1.00;;;;;42.78;18.86;59838.44;5007829;27;46241;-77
2022/08/29 10:23:33;;;;;;;;;1.33;1.33;;;;;42.49;20.20;59352.13;5039070;27;45552;-76
2022/08/29 10:26:07;;;;;;;;;2.33;2.33;;;;;42.47;19.63;60015.91;5066500;27;45701;-77
2022/08/29 10:28:41;;;;;;;;;2.00;2.00;;;;;42.51;19.63;60044.47;5038202;27;45932;-78
2022/08/29 10:31:18;;;;;;;;;1.00;1.00;;;;;42.65;20.08;59625.38;5017315;27;45610;-80
2022/08/29 10:34:10;;;;;;;;;1.00;1.00;;;;;42.59;20.09;59284.06;4992754;28;45502;-84
2022/08/29 10:36:42;;;;;;;;;2.33;1.00;;;;;42.69;19.60;59562.84;4982399;27;45549;-84
2022/08/29 10:39:34;;;;;;;;;1.67;1.67;;;;;42.76;19.70;59603.25;4999273;27;46190;-88
2022/08/29 10:42:22;;;;;;;;;2.00;1.00;;;;;43.00;19.61;59202.88;5005475;27;45643;-79
2022/08/29 10:45:14;;;;;;;;;3.33;2.00;;;;;43.25;18.93;59154.94;4987324;27;45498;-78
2022/08/29 10:47:45;;;;;;;;;0.33;0.33;;;;;43.41;18.54;59140.50;5001166;27;45505;-79
2022/08/29 10:50:29;;;;;;;;;2.33;2.33;;;;;43.42;18.95;58963.22;5021158;28;45577;-81
2022/08/29 10:53:15;;;;;;;;;3.00;1.33;;;;;43.61;18.30;58929.03;5009633;28;45542;-84
2022/08/29 10:55:52;;;;;;;;;1.33;1.33;;;;;43.77;18.92;58631.06;4996972;28;45488;-86
2022/08/29 10:58:54;;;;;;;;;2.00;2.00;;;;;43.89;18.22;58570.28;5007834;27;45800;-80
2022/08/29 11:01:44;;;;;;;;;2.00;2.00;;;;;43.95;18.50;58625.78;4997853;27;47054;-80
2022/08/29 11:04:18;;;;;;;;;3.00;2.00;;;;;44.08;18.90;58363.06;4964199;28;48000;-82
2022/08/29 11:06:59;;;;;;;;;2.67;1.33;;;;;44.11;18.33;58558.38;5006629;28;45747;-80
2022/08/29 11:09:29;;;;;;;;;1.67;1.67;;;;;44.16;17.90;58644.03;4980788;28;45518;-80
2022/08/29 11:12:01;;;;;;;;;0.67;0.67;;;;;44.17;19.43;57849.81;5001565;28;45809;-79
2022/08/29 11:14:50;;;;;;;;;4.67;2.00;;;;;44.18;18.95;58303.50;4965895;28;46298;-79
2022/08/29 11:17:19;;;;;;;;;3.67;3.67;;;;;44.24;18.52;58276.59;4993353;28;45580;-79
2022/08/29 11:19:56;;;;;;;;;1.00;1.00;;;;;44.18;18.76;58256.22;4990193;28;45692;-73
2022/08/29 11:22:34;;;;;;;;;1.33;1.33;;;;;44.35;19.20;57938.88;4984774;28;45635;-76
2022/08/29 11:25:13;;;;;;;;;4.00;2.00;;;;;44.41;17.83;58465.44;5008858;28;46890;-76
2022/08/29 11:28:20;;;;;;;;;1.67;1.67;;;;;44.44;17.95;58498.53;4987517;28;45600;-76
2022/08/29 11:30:57;;;;;;;;;2.67;1.00;;;;;44.43;17.77;58614.38;4997480;28;46698;-76
2022/08/29 11:33:40;;;;;;;;;2.00;2.00;;;;;44.41;17.75;58762.59;4986830;28;47116;-77
2022/08/29 11:36:49;;;;;;;;;2.00;2.00;;;;;44.36;18.00;58849.88;5019773;27;47351;-77
2022/08/29 11:39:33;;;;;;;;;1.67;1.67;;;;;44.34;18.25;58727.75;4993114;28;45433;-86
2022/08/29 11:42:03;;;;;;;;;2.00;2.00;;;;;44.21;18.19;59096.28;4988582;28;45540;-79
2022/08/29 11:44:28;;;;;;;;;2.00;2.00;;;;;44.11;17.70;59406.00;5045435;27;45871;-78
2022/08/29 11:46:54;;;;;;;;;2.00;2.00;;;;;43.97;19.06;58875.22;4984314;28;48032;-75
2022/08/29 11:49:29;;;;;;;;;2.00;2.00;;;;;43.86;18.76;59567.47;5002559;27;46059;-85
2022/08/29 11:51:58;;;;;;;;;2.00;2.00;;;;;43.82;18.86;59500.00;5015006;27;45584;-84